sensor_id;sensor_type;location;lat;lon;timestamp;P1;durP1;ratioP1;P2;durP2;ratioP2
33074;SDS011;19433;51.292;6.868;2022-07-12T00:01:49;1.50;;;1.40;;
33074;SDS011;19433;51.292;6.868;2022-07-12T00:04:14;0.90;;;0.90;;
33074;SDS011;19433;51.292;6.868;2022-07-12T00:06:40;1.80;;;1.10;;
33074;SDS011;19433;51.292;6.868;2022-07-12T00:09:05;0.90;;;0.90;;
33074;SDS011;19433;51.292;6.868;2022-07-12T00:11:30;1.17;;;1.07;;
33074;SDS011;19433;51.292;6.868;2022-07-12T00:13:56;1.00;;;1.00;;
33074;SDS011;19433;51.292;6.868;2022-07-12T00:16:22;1.07;;;1.07;;
33074;SDS011;19433;51.292;6.868;2022-07-12T00:18:48;0.90;;;0.90;;
33074;SDS011;19433;51.292;6.868;2022-07-12T00:21:13;0.77;;;0.77;;
33074;SDS011;19433;51.292;6.868;2022-07-12T00:23:38;1.10;;;1.10;;
33074;SDS011;19433;51.292;6.868;2022-07-12T00:26:04;1.60;;;1.50;;
33074;SDS011;19433;51.292;6.868;2022-07-12T00:28:32;0.93;;;0.93;;
33074;SDS011;19433;51.292;6.868;2022-07-12T00:30:57;1.20;;;1.10;;
33074;SDS011;19433;51.292;6.868;2022-07-12T00:33:23;1.20;;;1.10;;
33074;SDS011;19433;51.292;6.868;2022-07-12T00:35:49;1.47;;;1.20;;
33074;SDS011;19433;51.292;6.868;2022-07-12T00:38:14;1.00;;;1.00;;
33074;SDS011;19433;51.292;6.868;2022-07-12T00:40:40;1.70;;;1.60;;
33074;SDS011;19433;51.292;6.868;2022-07-12T00:43:05;1.10;;;1.10;;
33074;SDS011;19433;51.292;6.868;2022-07-12T00:45:30;1.03;;;1.03;;
33074;SDS011;19433;51.292;6.868;2022-07-12T00:47:56;0.87;;;0.87;;
33074;SDS011;19433;51.292;6.868;2022-07-12T00:50:21;0.80;;;0.80;;
33074;SDS011;19433;51.292;6.868;2022-07-12T00:52:48;0.90;;;0.80;;
33074;SDS011;19433;51.292;6.868;2022-07-12T00:55:15;0.80;;;0.80;;
33074;SDS011;19433;51.292;6.868;2022-07-12T00:57:43;1.17;;;1.17;;
33074;SDS011;19433;51.292;6.868;2022-07-12T01:00:09;1.33;;;1.23;;
33074;SDS011;19433;51.292;6.868;2022-07-12T01:02:37;1.00;;;1.00;;
33074;SDS011;19433;51.292;6.868;2022-07-12T01:05:06;1.00;;;1.00;;
33074;SDS011;19433;51.292;6.868;2022-07-12T01:07:36;1.00;;;1.00;;
33074;SDS011;19433;51.292;6.868;2022-07-12T01:10:02;0.90;;;0.90;;
33074;SDS011;19433;51.292;6.868;2022-07-12T01:12:30;1.30;;;1.30;;
33074;SDS011;19433;51.292;6.868;2022-07-12T01:14:56;1.00;;;1.00;;
33074;SDS011;19433;51.292;6.868;2022-07-12T01:17:22;1.40;;;1.30;;
33074;SDS011;19433;51.292;6.868;2022-07-12T01:19:50;1.20;;;1.10;;
33074;SDS011;19433;51.292;6.868;2022-07-12T01:22:17;0.90;;;0.90;;
33074;SDS011;19433;51.292;6.868;2022-07-12T01:24:43;3.27;;;1.17;;
33074;SDS011;19433;51.292;6.868;2022-07-12T01:27:09;1.40;;;1.30;;
33074;SDS011;19433;51.292;6.868;2022-07-12T01:29:36;0.83;;;0.83;;
33074;SDS011;19433;51.292;6.868;2022-07-12T01:32:02;0.93;;;0.93;;
33074;SDS011;19433;51.292;6.868;2022-07-12T01:34:48;0.90;;;0.90;;
33074;SDS011;19433;51.292;6.868;2022-07-12T01:37:16;1.00;;;1.00;;
33074;SDS011;19433;51.292;6.868;2022-07-12T01:39:43;1.30;;;1.20;;
33074;SDS011;19433;51.292;6.868;2022-07-12T01:42:09;3.93;;;1.10;;
33074;SDS011;19433;51.292;6.868;2022-07-12T01:44:34;1.43;;;1.33;;
33074;SDS011;19433;51.292;6.868;2022-07-12T01:47:00;1.20;;;1.10;;
33074;SDS011;19433;51.292;6.868;2022-07-12T01:49:25;0.97;;;0.97;;
33074;SDS011;19433;51.292;6.868;2022-07-12T01:51:51;1.43;;;1.33;;
33074;SDS011;19433;51.292;6.868;2022-07-12T01:54:16;1.60;;;1.50;;
33074;SDS011;19433;51.292;6.868;2022-07-12T01:56:41;1.20;;;1.17;;
33074;SDS011;19433;51.292;6.868;2022-07-12T01:59:07;1.10;;;1.10;;
33074;SDS011;19433;51.292;6.868;2022-07-12T02:01:33;0.97;;;0.90;;
33074;SDS011;19433;51.292;6.868;2022-07-12T02:04:02;1.13;;;0.87;;
33074;SDS011;19433;51.292;6.868;2022-07-12T02:06:28;0.90;;;0.90;;
33074;SDS011;19433;51.292;6.868;2022-07-12T02:08:54;0.90;;;0.90;;
33074;SDS011;19433;51.292;6.868;2022-07-12T02:11:19;1.77;;;1.67;;
33074;SDS011;19433;51.292;6.868;2022-07-12T02:13:45;0.80;;;0.80;;
33074;SDS011;19433;51.292;6.868;2022-07-12T02:16:10;1.20;;;1.10;;
33074;SDS011;19433;51.292;6.868;2022-07-12T02:18:35;0.80;;;0.80;;
33074;SDS011;19433;51.292;6.868;2022-07-12T02:21:01;1.50;;;1.40;;
33074;SDS011;19433;51.292;6.868;2022-07-12T02:23:26;1.10;;;1.10;;
33074;SDS011;19433;51.292;6.868;2022-07-12T02:25:52;1.13;;;1.03;;
33074;SDS011;19433;51.292;6.868;2022-07-12T02:28:17;1.40;;;1.30;;
33074;SDS011;19433;51.292;6.868;2022-07-12T02:30:42;1.13;;;1.13;;
33074;SDS011;19433;51.292;6.868;2022-07-12T02:33:08;1.43;;;1.20;;
33074;SDS011;19433;51.292;6.868;2022-07-12T02:35:33;0.90;;;0.90;;
33074;SDS011;19433;51.292;6.868;2022-07-12T02:37:58;1.60;;;1.27;;
33074;SDS011;19433;51.292;6.868;2022-07-12T02:40:23;1.50;;;1.40;;
33074;SDS011;19433;51.292;6.868;2022-07-12T02:43:07;0.90;;;0.90;;
33074;SDS011;19433;51.292;6.868;2022-07-12T02:45:33;1.10;;;1.10;;
33074;SDS011;19433;51.292;6.868;2022-07-12T02:47:58;0.90;;;0.90;;
33074;SDS011;19433;51.292;6.868;2022-07-12T02:50:23;1.13;;;1.03;;
33074;SDS011;19433;51.292;6.868;2022-07-12T02:52:49;1.10;;;1.10;;
33074;SDS011;19433;51.292;6.868;2022-07-12T02:55:14;0.80;;;0.80;;
33074;SDS011;19433;51.292;6.868;2022-07-12T02:57:39;0.97;;;0.93;;
33074;SDS011;19433;51.292;6.868;2022-07-12T03:00:05;1.43;;;1.00;;
33074;SDS011;19433;51.292;6.868;2022-07-12T03:02:32;0.90;;;0.90;;
33074;SDS011;19433;51.292;6.868;2022-07-12T03:04:57;1.03;;;1.03;;
33074;SDS011;19433;51.292;6.868;2022-07-12T03:07:23;1.10;;;1.10;;
33074;SDS011;19433;51.292;6.868;2022-07-12T03:09:48;0.90;;;0.90;;
33074;SDS011;19433;51.292;6.868;2022-07-12T03:12:13;1.13;;;1.13;;
33074;SDS011;19433;51.292;6.868;2022-07-12T03:14:38;0.83;;;0.83;;
33074;SDS011;19433;51.292;6.868;2022-07-12T03:17:04;1.10;;;1.10;;
33074;SDS011;19433;51.292;6.868;2022-07-12T03:19:29;1.20;;;1.17;;
33074;SDS011;19433;51.292;6.868;2022-07-12T03:21:54;1.50;;;1.40;;
33074;SDS011;19433;51.292;6.868;2022-07-12T03:24:20;1.00;;;1.00;;
33074;SDS011;19433;51.292;6.868;2022-07-12T03:26:45;1.50;;;1.40;;
33074;SDS011;19433;51.292;6.868;2022-07-12T03:29:10;1.27;;;1.20;;
33074;SDS011;19433;51.292;6.868;2022-07-12T03:31:36;1.30;;;1.20;;
33074;SDS011;19433;51.292;6.868;2022-07-12T03:34:01;1.13;;;1.13;;
33074;SDS011;19433;51.292;6.868;2022-07-12T03:36:28;1.43;;;1.33;;
33074;SDS011;19433;51.292;6.868;2022-07-12T03:38:53;2.30;;;1.40;;
33074;SDS011;19433;51.292;6.868;2022-07-12T03:41:18;1.13;;;1.03;;
33074;SDS011;19433;51.292;6.868;2022-07-12T03:43:44;0.83;;;0.83;;
33074;SDS011;19433;51.292;6.868;2022-07-12T03:46:09;1.37;;;1.37;;
33074;SDS011;19433;51.292;6.868;2022-07-12T03:48:35;1.30;;;1.20;;
33074;SDS011;19433;51.292;6.868;2022-07-12T03:51:00;1.13;;;1.10;;
33074;SDS011;19433;51.292;6.868;2022-07-12T03:53:26;1.27;;;1.27;;
33074;SDS011;19433;51.292;6.868;2022-07-12T03:55:51;0.80;;;0.80;;
33074;SDS011;19433;51.292;6.868;2022-07-12T03:58:16;1.70;;;1.50;;
33074;SDS011;19433;51.292;6.868;2022-07-12T04:00:41;1.03;;;1.00;;
33074;SDS011;19433;51.292;6.868;2022-07-12T04:03:08;1.80;;;1.47;;
33074;SDS011;19433;51.292;6.868;2022-07-12T04:05:35;3.27;;;1.50;;
33074;SDS011;19433;51.292;6.868;2022-07-12T04:08:01;1.33;;;1.23;;
33074;SDS011;19433;51.292;6.868;2022-07-12T04:10:27;1.60;;;1.50;;
33074;SDS011;19433;51.292;6.868;2022-07-12T04:12:52;1.50;;;1.40;;
33074;SDS011;19433;51.292;6.868;2022-07-12T04:15:18;1.20;;;1.10;;
33074;SDS011;19433;51.292;6.868;2022-07-12T04:17:43;1.33;;;1.23;;
33074;SDS011;19433;51.292;6.868;2022-07-12T04:20:08;1.97;;;1.40;;
33074;SDS011;19433;51.292;6.868;2022-07-12T04:22:35;1.43;;;1.30;;
33074;SDS011;19433;51.292;6.868;2022-07-12T04:25:00;1.00;;;1.00;;
33074;SDS011;19433;51.292;6.868;2022-07-12T04:27:26;2.20;;;1.57;;
33074;SDS011;19433;51.292;6.868;2022-07-12T04:29:54;2.30;;;2.10;;
33074;SDS011;19433;51.292;6.868;2022-07-12T04:32:19;2.80;;;1.93;;
33074;SDS011;19433;51.292;6.868;2022-07-12T04:34:44;1.70;;;1.60;;
33074;SDS011;19433;51.292;6.868;2022-07-12T04:37:10;2.00;;;1.80;;
33074;SDS011;19433;51.292;6.868;2022-07-12T04:39:35;3.27;;;1.90;;
33074;SDS011;19433;51.292;6.868;2022-07-12T04:42:00;1.97;;;1.87;;
33074;SDS011;19433;51.292;6.868;2022-07-12T04:44:26;2.17;;;1.97;;
33074;SDS011;19433;51.292;6.868;2022-07-12T04:46:51;2.20;;;1.80;;
33074;SDS011;19433;51.292;6.868;2022-07-12T04:49:16;2.80;;;2.50;;
33074;SDS011;19433;51.292;6.868;2022-07-12T04:51:42;4.13;;;2.40;;
33074;SDS011;19433;51.292;6.868;2022-07-12T04:54:07;1.97;;;1.80;;
33074;SDS011;19433;51.292;6.868;2022-07-12T04:56:32;2.87;;;2.60;;
33074;SDS011;19433;51.292;6.868;2022-07-12T04:58:58;2.40;;;2.20;;
33074;SDS011;19433;51.292;6.868;2022-07-12T05:01:23;4.00;;;2.77;;
33074;SDS011;19433;51.292;6.868;2022-07-12T05:03:48;2.20;;;1.83;;
33074;SDS011;19433;51.292;6.868;2022-07-12T05:06:14;3.63;;;2.47;;
33074;SDS011;19433;51.292;6.868;2022-07-12T05:08:39;2.93;;;2.57;;
33074;SDS011;19433;51.292;6.868;2022-07-12T05:11:04;2.67;;;2.20;;
33074;SDS011;19433;51.292;6.868;2022-07-12T05:13:30;3.10;;;2.13;;
33074;SDS011;19433;51.292;6.868;2022-07-12T05:15:55;3.30;;;2.50;;
33074;SDS011;19433;51.292;6.868;2022-07-12T05:18:21;2.17;;;1.97;;
33074;SDS011;19433;51.292;6.868;2022-07-12T05:20:46;2.70;;;2.13;;
33074;SDS011;19433;51.292;6.868;2022-07-12T05:23:12;2.57;;;2.20;;
33074;SDS011;19433;51.292;6.868;2022-07-12T05:25:37;2.67;;;2.37;;
33074;SDS011;19433;51.292;6.868;2022-07-12T05:28:03;3.23;;;2.43;;
33074;SDS011;19433;51.292;6.868;2022-07-12T05:30:28;2.60;;;2.40;;
33074;SDS011;19433;51.292;6.868;2022-07-12T05:32:53;2.40;;;2.20;;
33074;SDS011;19433;51.292;6.868;2022-07-12T05:35:19;2.03;;;1.80;;
33074;SDS011;19433;51.292;6.868;2022-07-12T05:37:44;2.30;;;2.10;;
33074;SDS011;19433;51.292;6.868;2022-07-12T05:40:09;2.60;;;2.40;;
33074;SDS011;19433;51.292;6.868;2022-07-12T05:42:35;2.13;;;1.93;;
33074;SDS011;19433;51.292;6.868;2022-07-12T05:45:01;2.37;;;2.17;;
33074;SDS011;19433;51.292;6.868;2022-07-12T05:47:27;2.23;;;2.03;;
33074;SDS011;19433;51.292;6.868;2022-07-12T05:49:53;2.43;;;2.20;;
33074;SDS011;19433;51.292;6.868;2022-07-12T05:52:18;2.60;;;1.73;;
33074;SDS011;19433;51.292;6.868;2022-07-12T05:55:02;2.57;;;2.03;;
33074;SDS011;19433;51.292;6.868;2022-07-12T05:57:28;5.63;;;2.90;;
33074;SDS011;19433;51.292;6.868;2022-07-12T05:59:53;1.77;;;1.67;;
33074;SDS011;19433;51.292;6.868;2022-07-12T06:02:18;3.03;;;2.83;;
33074;SDS011;19433;51.292;6.868;2022-07-12T06:04:44;1.87;;;1.73;;
33074;SDS011;19433;51.292;6.868;2022-07-12T06:07:09;2.37;;;2.17;;
33074;SDS011;19433;51.292;6.868;2022-07-12T06:09:34;2.50;;;2.27;;
33074;SDS011;19433;51.292;6.868;2022-07-12T06:12:00;2.13;;;1.93;;
33074;SDS011;19433;51.292;6.868;2022-07-12T06:14:25;1.93;;;1.80;;
33074;SDS011;19433;51.292;6.868;2022-07-12T06:16:50;2.47;;;2.30;;
33074;SDS011;19433;51.292;6.868;2022-07-12T06:19:16;1.80;;;1.70;;
33074;SDS011;19433;51.292;6.868;2022-07-12T06:21:41;1.80;;;1.70;;
33074;SDS011;19433;51.292;6.868;2022-07-12T06:24:06;2.20;;;2.03;;
33074;SDS011;19433;51.292;6.868;2022-07-12T06:26:31;2.27;;;1.80;;
33074;SDS011;19433;51.292;6.868;2022-07-12T06:28:57;3.20;;;1.80;;
33074;SDS011;19433;51.292;6.868;2022-07-12T06:31:22;1.80;;;1.70;;
33074;SDS011;19433;51.292;6.868;2022-07-12T06:33:49;1.80;;;1.53;;
33074;SDS011;19433;51.292;6.868;2022-07-12T06:36:15;1.77;;;1.67;;
33074;SDS011;19433;51.292;6.868;2022-07-12T06:38:40;1.90;;;1.80;;
33074;SDS011;19433;51.292;6.868;2022-07-12T06:41:05;1.87;;;1.77;;
33074;SDS011;19433;51.292;6.868;2022-07-12T06:43:30;2.23;;;2.13;;
33074;SDS011;19433;51.292;6.868;2022-07-12T06:45:56;3.10;;;1.57;;
33074;SDS011;19433;51.292;6.868;2022-07-12T06:48:21;2.20;;;2.00;;
33074;SDS011;19433;51.292;6.868;2022-07-12T06:50:46;1.80;;;1.70;;
33074;SDS011;19433;51.292;6.868;2022-07-12T06:53:12;2.63;;;1.97;;
33074;SDS011;19433;51.292;6.868;2022-07-12T06:55:37;1.70;;;1.60;;
33074;SDS011;19433;51.292;6.868;2022-07-12T06:58:02;2.07;;;1.90;;
33074;SDS011;19433;51.292;6.868;2022-07-12T07:00:28;2.33;;;2.00;;
33074;SDS011;19433;51.292;6.868;2022-07-12T07:02:53;1.30;;;1.20;;
33074;SDS011;19433;51.292;6.868;2022-07-12T07:05:18;2.57;;;2.00;;
33074;SDS011;19433;51.292;6.868;2022-07-12T07:07:44;2.13;;;2.00;;
33074;SDS011;19433;51.292;6.868;2022-07-12T07:10:10;1.43;;;1.43;;
33074;SDS011;19433;51.292;6.868;2022-07-12T07:12:35;1.07;;;0.97;;
33074;SDS011;19433;51.292;6.868;2022-07-12T07:15:00;1.57;;;1.47;;
33074;SDS011;19433;51.292;6.868;2022-07-12T07:17:26;2.17;;;1.50;;
33074;SDS011;19433;51.292;6.868;2022-07-12T07:19:51;1.20;;;1.10;;
33074;SDS011;19433;51.292;6.868;2022-07-12T07:22:16;1.33;;;1.23;;
33074;SDS011;19433;51.292;6.868;2022-07-12T07:24:42;1.30;;;1.20;;
33074;SDS011;19433;51.292;6.868;2022-07-12T07:27:07;1.53;;;1.43;;
33074;SDS011;19433;51.292;6.868;2022-07-12T07:29:33;1.80;;;1.43;;
33074;SDS011;19433;51.292;6.868;2022-07-12T07:32:17;1.50;;;1.40;;
33074;SDS011;19433;51.292;6.868;2022-07-12T07:34:42;1.30;;;1.23;;
33074;SDS011;19433;51.292;6.868;2022-07-12T07:37:08;1.03;;;1.03;;
33074;SDS011;19433;51.292;6.868;2022-07-12T07:39:34;1.80;;;1.70;;
33074;SDS011;19433;51.292;6.868;2022-07-12T07:42:00;1.73;;;1.40;;
33074;SDS011;19433;51.292;6.868;2022-07-12T07:44:26;1.03;;;0.93;;
33074;SDS011;19433;51.292;6.868;2022-07-12T07:46:52;1.33;;;1.23;;
33074;SDS011;19433;51.292;6.868;2022-07-12T07:49:17;1.40;;;1.30;;
33074;SDS011;19433;51.292;6.868;2022-07-12T07:51:42;1.77;;;1.50;;
33074;SDS011;19433;51.292;6.868;2022-07-12T07:54:08;2.03;;;1.93;;
33074;SDS011;19433;51.292;6.868;2022-07-12T07:56:33;1.10;;;1.10;;
33074;SDS011;19433;51.292;6.868;2022-07-12T07:58:58;2.23;;;1.50;;
33074;SDS011;19433;51.292;6.868;2022-07-12T08:01:24;1.10;;;1.10;;
33074;SDS011;19433;51.292;6.868;2022-07-12T08:04:07;1.37;;;1.27;;
33074;SDS011;19433;51.292;6.868;2022-07-12T08:06:39;2.53;;;1.23;;
33074;SDS011;19433;51.292;6.868;2022-07-12T08:09:04;1.10;;;1.10;;
33074;SDS011;19433;51.292;6.868;2022-07-12T08:11:30;1.20;;;1.10;;
33074;SDS011;19433;51.292;6.868;2022-07-12T08:13:56;0.90;;;0.90;;
33074;SDS011;19433;51.292;6.868;2022-07-12T08:16:21;1.53;;;1.43;;
33074;SDS011;19433;51.292;6.868;2022-07-12T08:18:46;1.20;;;1.20;;
33074;SDS011;19433;51.292;6.868;2022-07-12T08:21:12;1.13;;;1.13;;
33074;SDS011;19433;51.292;6.868;2022-07-12T08:23:37;1.03;;;1.00;;
33074;SDS011;19433;51.292;6.868;2022-07-12T08:26:02;1.10;;;1.00;;
33074;SDS011;19433;51.292;6.868;2022-07-12T08:28:28;0.90;;;0.90;;
33074;SDS011;19433;51.292;6.868;2022-07-12T08:30:53;0.93;;;0.90;;
33074;SDS011;19433;51.292;6.868;2022-07-12T08:33:18;1.10;;;0.97;;
33074;SDS011;19433;51.292;6.868;2022-07-12T08:35:44;1.00;;;1.00;;
33074;SDS011;19433;51.292;6.868;2022-07-12T08:38:09;1.40;;;1.17;;
33074;SDS011;19433;51.292;6.868;2022-07-12T08:40:35;1.13;;;1.03;;
33074;SDS011;19433;51.292;6.868;2022-07-12T08:43:01;1.10;;;0.90;;
33074;SDS011;19433;51.292;6.868;2022-07-12T08:45:26;0.80;;;0.80;;
33074;SDS011;19433;51.292;6.868;2022-07-12T08:47:52;1.17;;;1.07;;
33074;SDS011;19433;51.292;6.868;2022-07-12T08:50:18;1.20;;;1.10;;
33074;SDS011;19433;51.292;6.868;2022-07-12T08:52:45;1.40;;;1.30;;
33074;SDS011;19433;51.292;6.868;2022-07-12T08:55:18;0.80;;;0.80;;
33074;SDS011;19433;51.292;6.868;2022-07-12T08:57:44;0.90;;;0.90;;
33074;SDS011;19433;51.292;6.868;2022-07-12T09:00:09;0.90;;;0.90;;
33074;SDS011;19433;51.292;6.868;2022-07-12T09:02:57;0.90;;;0.90;;
33074;SDS011;19433;51.292;6.868;2022-07-12T09:05:23;0.67;;;0.67;;
33074;SDS011;19433;51.292;6.868;2022-07-12T09:10:28;1.10;;;1.10;;
33074;SDS011;19433;51.292;6.868;2022-07-12T09:12:54;0.83;;;0.83;;
33074;SDS011;19433;51.292;6.868;2022-07-12T09:15:20;0.70;;;0.70;;
33074;SDS011;19433;51.292;6.868;2022-07-12T09:18:03;0.77;;;0.77;;
33074;SDS011;19433;51.292;6.868;2022-07-12T09:20:31;0.80;;;0.80;;
33074;SDS011;19433;51.292;6.868;2022-07-12T09:23:00;1.20;;;1.10;;
33074;SDS011;19433;51.292;6.868;2022-07-12T09:25:29;0.87;;;0.80;;
33074;SDS011;19433;51.292;6.868;2022-07-12T09:27:55;0.97;;;0.97;;
33074;SDS011;19433;51.292;6.868;2022-07-12T09:30:22;1.17;;;1.00;;
33074;SDS011;19433;51.292;6.868;2022-07-12T09:32:53;0.77;;;0.77;;
33074;SDS011;19433;51.292;6.868;2022-07-12T09:35:37;1.57;;;0.90;;
33074;SDS011;19433;51.292;6.868;2022-07-12T09:38:23;0.70;;;0.70;;
33074;SDS011;19433;51.292;6.868;2022-07-12T09:40:49;0.80;;;0.80;;
33074;SDS011;19433;51.292;6.868;2022-07-12T09:43:14;0.70;;;0.60;;
33074;SDS011;19433;51.292;6.868;2022-07-12T09:45:41;0.90;;;0.77;;
33074;SDS011;19433;51.292;6.868;2022-07-12T09:48:08;1.07;;;1.07;;
33074;SDS011;19433;51.292;6.868;2022-07-12T09:50:36;0.80;;;0.80;;
33074;SDS011;19433;51.292;6.868;2022-07-12T09:53:02;1.13;;;0.80;;
33074;SDS011;19433;51.292;6.868;2022-07-12T09:55:29;1.40;;;1.30;;
33074;SDS011;19433;51.292;6.868;2022-07-12T09:57:57;0.80;;;0.80;;
33074;SDS011;19433;51.292;6.868;2022-07-12T10:00:27;0.90;;;0.90;;
33074;SDS011;19433;51.292;6.868;2022-07-12T10:02:53;0.80;;;0.80;;
33074;SDS011;19433;51.292;6.868;2022-07-12T10:05:20;1.33;;;1.30;;
33074;SDS011;19433;51.292;6.868;2022-07-12T10:07:49;0.80;;;0.80;;
33074;SDS011;19433;51.292;6.868;2022-07-12T10:10:15;0.60;;;0.60;;
33074;SDS011;19433;51.292;6.868;2022-07-12T10:12:42;1.80;;;0.70;;
33074;SDS011;19433;51.292;6.868;2022-07-12T10:15:09;0.70;;;0.63;;
33074;SDS011;19433;51.292;6.868;2022-07-12T10:17:39;0.60;;;0.60;;
33074;SDS011;19433;51.292;6.868;2022-07-12T10:20:18;0.90;;;0.90;;
33074;SDS011;19433;51.292;6.868;2022-07-12T10:22:47;1.27;;;1.17;;
33074;SDS011;19433;51.292;6.868;2022-07-12T10:27:50;0.60;;;0.60;;
33074;SDS011;19433;51.292;6.868;2022-07-12T10:30:19;0.73;;;0.60;;
33074;SDS011;19433;51.292;6.868;2022-07-12T10:32:46;0.83;;;0.60;;
33074;SDS011;19433;51.292;6.868;2022-07-12T10:38:29;0.60;;;0.60;;
33074;SDS011;19433;51.292;6.868;2022-07-12T10:40:39;0.60;;;0.60;;
33074;SDS011;19433;51.292;6.868;2022-07-12T10:47:57;1.70;;;0.60;;
33074;SDS011;19433;51.292;6.868;2022-07-12T10:53:51;0.67;;;0.67;;
33074;SDS011;19433;51.292;6.868;2022-07-12T10:58:53;1.20;;;1.10;;
33074;SDS011;19433;51.292;6.868;2022-07-12T11:01:21;0.80;;;0.70;;
33074;SDS011;19433;51.292;6.868;2022-07-12T11:03:47;0.77;;;0.73;;
33074;SDS011;19433;51.292;6.868;2022-07-12T11:06:20;0.87;;;0.70;;
33074;SDS011;19433;51.292;6.868;2022-07-12T11:11:26;0.77;;;0.50;;
33074;SDS011;19433;51.292;6.868;2022-07-12T11:13:59;0.53;;;0.53;;
33074;SDS011;19433;51.292;6.868;2022-07-12T11:16:26;0.80;;;0.80;;
33074;SDS011;19433;51.292;6.868;2022-07-12T11:18:52;0.63;;;0.63;;
33074;SDS011;19433;51.292;6.868;2022-07-12T11:21:19;0.57;;;0.57;;
33074;SDS011;19433;51.292;6.868;2022-07-12T11:23:45;1.03;;;0.60;;
33074;SDS011;19433;51.292;6.868;2022-07-12T11:26:10;0.80;;;0.80;;
33074;SDS011;19433;51.292;6.868;2022-07-12T11:28:37;0.60;;;0.60;;
33074;SDS011;19433;51.292;6.868;2022-07-12T11:31:08;0.50;;;0.50;;
33074;SDS011;19433;51.292;6.868;2022-07-12T11:33:38;0.63;;;0.63;;
33074;SDS011;19433;51.292;6.868;2022-07-12T11:36:12;0.60;;;0.60;;
33074;SDS011;19433;51.292;6.868;2022-07-12T11:38:38;0.93;;;0.60;;
33074;SDS011;19433;51.292;6.868;2022-07-12T11:41:08;0.67;;;0.67;;
33074;SDS011;19433;51.292;6.868;2022-07-12T11:43:35;0.70;;;0.70;;
33074;SDS011;19433;51.292;6.868;2022-07-12T11:46:01;1.07;;;0.60;;
33074;SDS011;19433;51.292;6.868;2022-07-12T11:48:28;0.63;;;0.63;;
33074;SDS011;19433;51.292;6.868;2022-07-12T11:51:00;0.60;;;0.60;;
33074;SDS011;19433;51.292;6.868;2022-07-12T11:53:33;0.63;;;0.63;;
33074;SDS011;19433;51.292;6.868;2022-07-12T11:56:00;0.60;;;0.57;;
33074;SDS011;19433;51.292;6.868;2022-07-12T11:58:26;0.60;;;0.60;;
33074;SDS011;19433;51.292;6.868;2022-07-12T12:00:53;0.90;;;0.80;;
33074;SDS011;19433;51.292;6.868;2022-07-12T12:03:20;0.60;;;0.60;;
33074;SDS011;19433;51.292;6.868;2022-07-12T12:05:47;0.60;;;0.60;;
33074;SDS011;19433;51.292;6.868;2022-07-12T12:08:21;0.60;;;0.60;;
33074;SDS011;19433;51.292;6.868;2022-07-12T12:10:59;0.90;;;0.90;;
33074;SDS011;19433;51.292;6.868;2022-07-12T12:13:26;0.73;;;0.73;;
33074;SDS011;19433;51.292;6.868;2022-07-12T12:15:57;0.70;;;0.70;;
33074;SDS011;19433;51.292;6.868;2022-07-12T12:18:30;0.80;;;0.53;;
33074;SDS011;19433;51.292;6.868;2022-07-12T12:21:06;0.67;;;0.67;;
33074;SDS011;19433;51.292;6.868;2022-07-12T12:23:36;0.70;;;0.70;;
33074;SDS011;19433;51.292;6.868;2022-07-12T12:26:10;0.60;;;0.60;;
33074;SDS011;19433;51.292;6.868;2022-07-12T12:28:47;0.70;;;0.70;;
33074;SDS011;19433;51.292;6.868;2022-07-12T12:31:14;0.70;;;0.70;;
33074;SDS011;19433;51.292;6.868;2022-07-12T12:33:42;0.70;;;0.70;;
33074;SDS011;19433;51.292;6.868;2022-07-12T12:36:36;0.70;;;0.70;;
33074;SDS011;19433;51.292;6.868;2022-07-12T12:39:02;0.87;;;0.87;;
33074;SDS011;19433;51.292;6.868;2022-07-12T12:41:29;0.70;;;0.70;;
33074;SDS011;19433;51.292;6.868;2022-07-12T12:49:42;0.70;;;0.70;;
33074;SDS011;19433;51.292;6.868;2022-07-12T12:52:13;0.60;;;0.60;;
33074;SDS011;19433;51.292;6.868;2022-07-12T12:54:38;0.50;;;0.50;;
33074;SDS011;19433;51.292;6.868;2022-07-12T12:57:04;0.50;;;0.50;;
33074;SDS011;19433;51.292;6.868;2022-07-12T12:59:30;0.73;;;0.73;;
33074;SDS011;19433;51.292;6.868;2022-07-12T13:01:56;0.50;;;0.50;;
33074;SDS011;19433;51.292;6.868;2022-07-12T13:04:21;0.80;;;0.80;;
33074;SDS011;19433;51.292;6.868;2022-07-12T13:06:47;0.60;;;0.60;;
33074;SDS011;19433;51.292;6.868;2022-07-12T13:09:12;0.70;;;0.70;;
33074;SDS011;19433;51.292;6.868;2022-07-12T13:11:37;0.73;;;0.73;;
33074;SDS011;19433;51.292;6.868;2022-07-12T13:14:03;0.70;;;0.70;;
33074;SDS011;19433;51.292;6.868;2022-07-12T13:16:28;0.80;;;0.80;;
33074;SDS011;19433;51.292;6.868;2022-07-12T13:18:54;0.60;;;0.50;;
33074;SDS011;19433;51.292;6.868;2022-07-12T13:21:19;1.43;;;0.60;;
33074;SDS011;19433;51.292;6.868;2022-07-12T13:23:44;0.70;;;0.67;;
33074;SDS011;19433;51.292;6.868;2022-07-12T13:26:10;2.87;;;1.10;;
33074;SDS011;19433;51.292;6.868;2022-07-12T13:28:35;0.70;;;0.70;;
33074;SDS011;19433;51.292;6.868;2022-07-12T13:31:01;0.60;;;0.60;;
33074;SDS011;19433;51.292;6.868;2022-07-12T13:33:26;0.90;;;0.90;;
33074;SDS011;19433;51.292;6.868;2022-07-12T13:35:51;0.97;;;0.97;;
33074;SDS011;19433;51.292;6.868;2022-07-12T13:38:17;0.70;;;0.70;;
33074;SDS011;19433;51.292;6.868;2022-07-12T13:40:42;0.80;;;0.80;;
33074;SDS011;19433;51.292;6.868;2022-07-12T13:43:08;0.80;;;0.80;;
33074;SDS011;19433;51.292;6.868;2022-07-12T13:45:34;0.90;;;0.90;;
33074;SDS011;19433;51.292;6.868;2022-07-12T13:47:59;0.83;;;0.83;;
33074;SDS011;19433;51.292;6.868;2022-07-12T13:50:25;1.20;;;1.10;;
33074;SDS011;19433;51.292;6.868;2022-07-12T13:52:51;0.70;;;0.70;;
33074;SDS011;19433;51.292;6.868;2022-07-12T13:55:17;1.13;;;1.03;;
33074;SDS011;19433;51.292;6.868;2022-07-12T13:57:43;0.70;;;0.70;;
33074;SDS011;19433;51.292;6.868;2022-07-12T14:00:12;0.97;;;0.93;;
33074;SDS011;19433;51.292;6.868;2022-07-12T14:02:49;0.80;;;0.80;;
33074;SDS011;19433;51.292;6.868;2022-07-12T14:05:15;0.77;;;0.77;;
33074;SDS011;19433;51.292;6.868;2022-07-12T14:07:41;0.73;;;0.73;;
33074;SDS011;19433;51.292;6.868;2022-07-12T14:10:08;0.67;;;0.67;;
33074;SDS011;19433;51.292;6.868;2022-07-12T14:12:34;0.80;;;0.80;;
33074;SDS011;19433;51.292;6.868;2022-07-12T14:15:00;0.97;;;0.97;;
33074;SDS011;19433;51.292;6.868;2022-07-12T14:17:38;0.80;;;0.80;;
33074;SDS011;19433;51.292;6.868;2022-07-12T14:20:04;2.00;;;1.03;;
33074;SDS011;19433;51.292;6.868;2022-07-12T14:22:30;0.80;;;0.80;;
33074;SDS011;19433;51.292;6.868;2022-07-12T14:24:56;0.93;;;0.93;;
33074;SDS011;19433;51.292;6.868;2022-07-12T14:27:21;0.90;;;0.90;;
33074;SDS011;19433;51.292;6.868;2022-07-12T14:29:47;1.00;;;1.00;;
33074;SDS011;19433;51.292;6.868;2022-07-12T14:32:12;1.23;;;1.13;;
33074;SDS011;19433;51.292;6.868;2022-07-12T14:34:37;1.00;;;0.90;;
33074;SDS011;19433;51.292;6.868;2022-07-12T14:37:03;1.37;;;1.20;;
33074;SDS011;19433;51.292;6.868;2022-07-12T14:39:28;0.80;;;0.80;;
33074;SDS011;19433;51.292;6.868;2022-07-12T14:41:53;0.90;;;0.77;;
33074;SDS011;19433;51.292;6.868;2022-07-12T14:44:19;1.00;;;0.90;;
33074;SDS011;19433;51.292;6.868;2022-07-12T14:46:44;0.70;;;0.70;;
33074;SDS011;19433;51.292;6.868;2022-07-12T14:49:10;0.90;;;0.90;;
33074;SDS011;19433;51.292;6.868;2022-07-12T14:51:36;0.90;;;0.90;;
33074;SDS011;19433;51.292;6.868;2022-07-12T14:54:01;0.90;;;0.90;;
33074;SDS011;19433;51.292;6.868;2022-07-12T14:56:26;0.70;;;0.70;;
33074;SDS011;19433;51.292;6.868;2022-07-12T14:58:52;1.10;;;1.10;;
33074;SDS011;19433;51.292;6.868;2022-07-12T15:01:18;1.00;;;1.00;;
33074;SDS011;19433;51.292;6.868;2022-07-12T15:03:43;1.00;;;1.00;;
33074;SDS011;19433;51.292;6.868;2022-07-12T15:06:09;0.70;;;0.70;;
33074;SDS011;19433;51.292;6.868;2022-07-12T15:08:34;0.80;;;0.80;;
33074;SDS011;19433;51.292;6.868;2022-07-12T15:10:59;0.80;;;0.80;;
33074;SDS011;19433;51.292;6.868;2022-07-12T15:13:27;1.10;;;1.10;;